sensor_id;sensor_type;location;lat;lon;timestamp;temperature;humidity
59923;DHT22;45778;51.142;3.732;2024-02-26T00:00:43;8.10;99.90
59923;DHT22;45778;51.142;3.732;2024-02-26T00:03:10;8.10;99.90
59923;DHT22;45778;51.142;3.732;2024-02-26T00:05:36;8.10;99.90
59923;DHT22;45778;51.142;3.732;2024-02-26T00:08:03;8.20;99.90
59923;DHT22;45778;51.142;3.732;2024-02-26T00:10:29;8.00;99.90
59923;DHT22;45778;51.142;3.732;2024-02-26T00:12:55;8.00;99.90
59923;DHT22;45778;51.142;3.732;2024-02-26T00:15:20;7.90;99.90
59923;DHT22;45778;51.142;3.732;2024-02-26T00:17:46;8.00;99.90
59923;DHT22;45778;51.142;3.732;2024-02-26T00:20:12;8.10;99.90
59923;DHT22;45778;51.142;3.732;2024-02-26T00:22:37;8.10;99.90
59923;DHT22;45778;51.142;3.732;2024-02-26T00:25:04;8.20;99.90
59923;DHT22;45778;51.142;3.732;2024-02-26T00:27:29;8.20;99.90
59923;DHT22;45778;51.142;3.732;2024-02-26T00:29:55;8.20;99.90
59923;DHT22;45778;51.142;3.732;2024-02-26T00:32:21;8.20;99.90
59923;DHT22;45778;51.142;3.732;2024-02-26T00:34:46;8.10;99.90
59923;DHT22;45778;51.142;3.732;2024-02-26T00:37:12;8.20;99.90
59923;DHT22;45778;51.142;3.732;2024-02-26T00:39:39;8.10;99.90
59923;DHT22;45778;51.142;3.732;2024-02-26T00:42:05;7.90;99.90
59923;DHT22;45778;51.142;3.732;2024-02-26T00:44:30;8.10;99.90
59923;DHT22;45778;51.142;3.732;2024-02-26T00:46:56;8.20;99.90
59923;DHT22;45778;51.142;3.732;2024-02-26T00:49:21;8.20;99.90
59923;DHT22;45778;51.142;3.732;2024-02-26T00:51:47;8.10;99.90
59923;DHT22;45778;51.142;3.732;2024-02-26T00:54:13;7.90;99.90
59923;DHT22;45778;51.142;3.732;2024-02-26T00:56:38;7.90;99.90
59923;DHT22;45778;51.142;3.732;2024-02-26T00:59:04;7.90;99.90
59923;DHT22;45778;51.142;3.732;2024-02-26T01:01:30;8.00;99.90
59923;DHT22;45778;51.142;3.732;2024-02-26T01:03:55;8.10;99.90
59923;DHT22;45778;51.142;3.732;2024-02-26T01:06:22;7.80;99.90
59923;DHT22;45778;51.142;3.732;2024-02-26T01:08:48;7.80;99.90
59923;DHT22;45778;51.142;3.732;2024-02-26T01:11:13;7.80;99.90
59923;DHT22;45778;51.142;3.732;2024-02-26T01:13:39;7.90;99.90
59923;DHT22;45778;51.142;3.732;2024-02-26T01:16:06;7.70;99.90
59923;DHT22;45778;51.142;3.732;2024-02-26T01:18:32;7.60;99.90
59923;DHT22;45778;51.142;3.732;2024-02-26T01:20:58;7.60;99.90
59923;DHT22;45778;51.142;3.732;2024-02-26T01:23:23;7.70;99.90
59923;DHT22;45778;51.142;3.732;2024-02-26T01:25:49;7.70;99.90
59923;DHT22;45778;51.142;3.732;2024-02-26T01:28:16;7.70;99.90
59923;DHT22;45778;51.142;3.732;2024-02-26T01:30:42;7.70;99.90
59923;DHT22;45778;51.142;3.732;2024-02-26T01:33:07;7.50;99.90
59923;DHT22;45778;51.142;3.732;2024-02-26T01:35:33;7.70;99.90
59923;DHT22;45778;51.142;3.732;2024-02-26T01:37:59;7.60;99.90
59923;DHT22;45778;51.142;3.732;2024-02-26T01:40:27;7.70;99.90
59923;DHT22;45778;51.142;3.732;2024-02-26T01:42:53;7.70;99.90
59923;DHT22;45778;51.142;3.732;2024-02-26T01:45:18;7.80;99.90
59923;DHT22;45778;51.142;3.732;2024-02-26T01:47:50;7.80;99.90
59923;DHT22;45778;51.142;3.732;2024-02-26T01:50:20;7.70;99.90
59923;DHT22;45778;51.142;3.732;2024-02-26T01:52:48;7.70;99.90
59923;DHT22;45778;51.142;3.732;2024-02-26T01:55:15;7.70;99.90
59923;DHT22;45778;51.142;3.732;2024-02-26T01:57:44;7.70;99.90
59923;DHT22;45778;51.142;3.732;2024-02-26T02:00:10;7.70;99.90
59923;DHT22;45778;51.142;3.732;2024-02-26T02:02:36;7.80;99.90
59923;DHT22;45778;51.142;3.732;2024-02-26T02:05:04;7.70;99.90
59923;DHT22;45778;51.142;3.732;2024-02-26T02:07:31;7.70;99.90
59923;DHT22;45778;51.142;3.732;2024-02-26T02:09:57;7.70;99.90
59923;DHT22;45778;51.142;3.732;2024-02-26T02:12:24;7.70;99.90
59923;DHT22;45778;51.142;3.732;2024-02-26T02:14:50;7.70;99.90
59923;DHT22;45778;51.142;3.732;2024-02-26T02:17:17;7.80;99.90
59923;DHT22;45778;51.142;3.732;2024-02-26T02:19:42;7.70;99.90
59923;DHT22;45778;51.142;3.732;2024-02-26T02:22:08;7.80;99.90
59923;DHT22;45778;51.142;3.732;2024-02-26T02:24:33;7.70;99.90
59923;DHT22;45778;51.142;3.732;2024-02-26T02:26:59;7.70;99.90
59923;DHT22;45778;51.142;3.732;2024-02-26T02:29:25;7.70;99.90
59923;DHT22;45778;51.142;3.732;2024-02-26T02:31:53;7.80;99.90
59923;DHT22;45778;51.142;3.732;2024-02-26T02:34:20;7.70;99.90
59923;DHT22;45778;51.142;3.732;2024-02-26T02:36:52;7.80;99.90
59923;DHT22;45778;51.142;3.732;2024-02-26T02:39:18;7.80;99.90
59923;DHT22;45778;51.142;3.732;2024-02-26T02:41:43;7.80;99.90
59923;DHT22;45778;51.142;3.732;2024-02-26T02:44:09;7.80;99.90
59923;DHT22;45778;51.142;3.732;2024-02-26T02:46:35;7.70;99.90
59923;DHT22;45778;51.142;3.732;2024-02-26T02:49:01;7.80;99.90
59923;DHT22;45778;51.142;3.732;2024-02-26T02:51:26;7.70;99.90
59923;DHT22;45778;51.142;3.732;2024-02-26T02:53:52;7.70;99.90
59923;DHT22;45778;51.142;3.732;2024-02-26T02:56:18;7.70;99.90
59923;DHT22;45778;51.142;3.732;2024-02-26T02:58:44;7.60;99.90
59923;DHT22;45778;51.142;3.732;2024-02-26T03:01:10;7.50;99.90
59923;DHT22;45778;51.142;3.732;2024-02-26T03:03:36;7.50;99.90
59923;DHT22;45778;51.142;3.732;2024-02-26T03:06:03;7.50;99.90
59923;DHT22;45778;51.142;3.732;2024-02-26T03:08:29;7.50;99.90
59923;DHT22;45778;51.142;3.732;2024-02-26T03:10:54;7.40;99.90
59923;DHT22;45778;51.142;3.732;2024-02-26T03:13:20;7.40;99.90
59923;DHT22;45778;51.142;3.732;2024-02-26T03:15:46;7.40;99.90
59923;DHT22;45778;51.142;3.732;2024-02-26T03:18:11;7.50;99.90
59923;DHT22;45778;51.142;3.732;2024-02-26T03:20:37;7.50;99.90
59923;DHT22;45778;51.142;3.732;2024-02-26T03:23:03;7.50;99.90
59923;DHT22;45778;51.142;3.732;2024-02-26T03:25:29;7.50;99.90
59923;DHT22;45778;51.142;3.732;2024-02-26T03:27:54;7.50;99.90
59923;DHT22;45778;51.142;3.732;2024-02-26T03:30:20;7.40;99.90
59923;DHT22;45778;51.142;3.732;2024-02-26T03:32:46;7.40;99.90
59923;DHT22;45778;51.142;3.732;2024-02-26T03:35:13;7.30;99.90
59923;DHT22;45778;51.142;3.732;2024-02-26T03:37:38;7.40;99.90
59923;DHT22;45778;51.142;3.732;2024-02-26T03:40:05;7.30;99.90
59923;DHT22;45778;51.142;3.732;2024-02-26T03:42:31;7.20;99.90
59923;DHT22;45778;51.142;3.732;2024-02-26T03:44:57;7.30;99.90
59923;DHT22;45778;51.142;3.732;2024-02-26T03:47:23;7.30;99.90
59923;DHT22;45778;51.142;3.732;2024-02-26T03:49:49;7.30;99.90
59923;DHT22;45778;51.142;3.732;2024-02-26T03:52:15;7.30;99.90
59923;DHT22;45778;51.142;3.732;2024-02-26T03:54:40;7.30;99.90
59923;DHT22;45778;51.142;3.732;2024-02-26T03:57:06;7.00;99.90
59923;DHT22;45778;51.142;3.732;2024-02-26T03:59:31;7.40;99.90
59923;DHT22;45778;51.142;3.732;2024-02-26T04:01:57;7.30;99.90
59923;DHT22;45778;51.142;3.732;2024-02-26T04:04:23;7.20;99.90
59923;DHT22;45778;51.142;3.732;2024-02-26T04:06:48;7.30;99.90
59923;DHT22;45778;51.142;3.732;2024-02-26T04:09:14;7.40;99.90
59923;DHT22;45778;51.142;3.732;2024-02-26T04:11:40;7.40;99.90
59923;DHT22;45778;51.142;3.732;2024-02-26T04:14:06;7.40;99.90
59923;DHT22;45778;51.142;3.732;2024-02-26T04:16:34;7.40;99.90
59923;DHT22;45778;51.142;3.732;2024-02-26T04:19:01;7.40;99.90
59923;DHT22;45778;51.142;3.732;2024-02-26T04:21:27;7.40;99.90
59923;DHT22;45778;51.142;3.732;2024-02-26T04:23:52;7.40;99.90
59923;DHT22;45778;51.142;3.732;2024-02-26T04:26:21;7.40;99.90
59923;DHT22;45778;51.142;3.732;2024-02-26T04:28:47;7.40;99.90
59923;DHT22;45778;51.142;3.732;2024-02-26T04:31:12;7.40;99.90
59923;DHT22;45778;51.142;3.732;2024-02-26T04:33:38;7.40;99.90
59923;DHT22;45778;51.142;3.732;2024-02-26T04:36:04;7.40;99.90
59923;DHT22;45778;51.142;3.732;2024-02-26T04:38:30;7.40;99.90
59923;DHT22;45778;51.142;3.732;2024-02-26T04:40:55;7.40;99.90
59923;DHT22;45778;51.142;3.732;2024-02-26T04:43:21;7.40;99.90
59923;DHT22;45778;51.142;3.732;2024-02-26T04:45:46;7.40;99.90
59923;DHT22;45778;51.142;3.732;2024-02-26T04:48:13;7.40;99.90
59923;DHT22;45778;51.142;3.732;2024-02-26T04:50:39;7.40;99.90
59923;DHT22;45778;51.142;3.732;2024-02-26T04:53:05;7.30;99.90
59923;DHT22;45778;51.142;3.732;2024-02-26T04:55:31;7.40;99.90
59923;DHT22;45778;51.142;3.732;2024-02-26T04:57:56;7.50;99.90
59923;DHT22;45778;51.142;3.732;2024-02-26T05:00:23;7.40;99.90
59923;DHT22;45778;51.142;3.732;2024-02-26T05:02:49;7.40;99.90
59923;DHT22;45778;51.142;3.732;2024-02-26T05:05:16;7.50;99.90
59923;DHT22;45778;51.142;3.732;2024-02-26T05:07:42;7.50;99.90
59923;DHT22;45778;51.142;3.732;2024-02-26T05:10:09;7.50;99.90
59923;DHT22;45778;51.142;3.732;2024-02-26T05:12:36;7.40;99.90
59923;DHT22;45778;51.142;3.732;2024-02-26T05:15:02;7.30;99.90
59923;DHT22;45778;51.142;3.732;2024-02-26T05:17:28;7.30;99.90
59923;DHT22;45778;51.142;3.732;2024-02-26T05:19:54;7.20;99.90
59923;DHT22;45778;51.142;3.732;2024-02-26T05:22:19;7.30;99.90
59923;DHT22;45778;51.142;3.732;2024-02-26T05:24:45;7.30;99.90
59923;DHT22;45778;51.142;3.732;2024-02-26T05:27:11;7.30;99.90
59923;DHT22;45778;51.142;3.732;2024-02-26T05:29:37;7.30;99.90
59923;DHT22;45778;51.142;3.732;2024-02-26T05:32:04;7.30;99.90
59923;DHT22;45778;51.142;3.732;2024-02-26T05:34:30;7.30;99.90
59923;DHT22;45778;51.142;3.732;2024-02-26T05:36:56;7.30;99.90
59923;DHT22;45778;51.142;3.732;2024-02-26T05:39:22;7.10;99.90
59923;DHT22;45778;51.142;3.732;2024-02-26T05:41:48;7.10;99.90
59923;DHT22;45778;51.142;3.732;2024-02-26T05:44:15;7.10;99.90
59923;DHT22;45778;51.142;3.732;2024-02-26T05:46:41;7.10;99.90
59923;DHT22;45778;51.142;3.732;2024-02-26T05:49:07;7.10;99.90
59923;DHT22;45778;51.142;3.732;2024-02-26T05:51:33;7.10;99.90
59923;DHT22;45778;51.142;3.732;2024-02-26T05:53:58;7.00;99.90
59923;DHT22;45778;51.142;3.732;2024-02-26T05:56:28;7.10;99.90
59923;DHT22;45778;51.142;3.732;2024-02-26T05:58:56;7.00;99.90
59923;DHT22;45778;51.142;3.732;2024-02-26T06:01:24;7.00;99.90
59923;DHT22;45778;51.142;3.732;2024-02-26T06:03:51;6.90;99.90
59923;DHT22;45778;51.142;3.732;2024-02-26T06:06:17;7.00;99.90
59923;DHT22;45778;51.142;3.732;2024-02-26T06:08:43;7.00;99.90
59923;DHT22;45778;51.142;3.732;2024-02-26T06:11:09;6.90;99.90
59923;DHT22;45778;51.142;3.732;2024-02-26T06:13:35;7.00;99.90
59923;DHT22;45778;51.142;3.732;2024-02-26T06:16:01;7.00;99.90
59923;DHT22;45778;51.142;3.732;2024-02-26T06:18:27;7.00;99.90
59923;DHT22;45778;51.142;3.732;2024-02-26T06:20:53;6.90;99.90
59923;DHT22;45778;51.142;3.732;2024-02-26T06:23:19;6.90;99.90
59923;DHT22;45778;51.142;3.732;2024-02-26T06:25:45;6.80;99.90
59923;DHT22;45778;51.142;3.732;2024-02-26T06:28:12;6.80;99.90
59923;DHT22;45778;51.142;3.732;2024-02-26T06:30:37;6.90;99.90
59923;DHT22;45778;51.142;3.732;2024-02-26T06:33:03;6.90;99.90
59923;DHT22;45778;51.142;3.732;2024-02-26T06:35:29;6.90;99.90
59923;DHT22;45778;51.142;3.732;2024-02-26T06:37:55;6.80;99.90
59923;DHT22;45778;51.142;3.732;2024-02-26T06:40:21;6.80;99.90
59923;DHT22;45778;51.142;3.732;2024-02-26T06:42:48;6.80;99.90
59923;DHT22;45778;51.142;3.732;2024-02-26T06:45:15;6.90;99.90
59923;DHT22;45778;51.142;3.732;2024-02-26T06:47:41;6.90;99.90
59923;DHT22;45778;51.142;3.732;2024-02-26T06:50:08;6.80;99.90
59923;DHT22;45778;51.142;3.732;2024-02-26T06:52:34;6.90;99.90
59923;DHT22;45778;51.142;3.732;2024-02-26T06:55:00;6.90;99.90
59923;DHT22;45778;51.142;3.732;2024-02-26T06:57:27;6.90;99.90
59923;DHT22;45778;51.142;3.732;2024-02-26T06:59:52;6.80;99.90
59923;DHT22;45778;51.142;3.732;2024-02-26T07:02:18;6.80;99.90
59923;DHT22;45778;51.142;3.732;2024-02-26T07:04:44;6.80;99.90
59923;DHT22;45778;51.142;3.732;2024-02-26T07:07:09;6.80;99.90
59923;DHT22;45778;51.142;3.732;2024-02-26T07:09:36;6.90;99.90
59923;DHT22;45778;51.142;3.732;2024-02-26T07:12:02;6.80;99.90
59923;DHT22;45778;51.142;3.732;2024-02-26T07:14:28;6.80;99.90
59923;DHT22;45778;51.142;3.732;2024-02-26T07:16:53;6.90;99.90
59923;DHT22;45778;51.142;3.732;2024-02-26T07:19:19;6.90;99.90
59923;DHT22;45778;51.142;3.732;2024-02-26T07:21:45;6.90;99.90
59923;DHT22;45778;51.142;3.732;2024-02-26T07:24:10;7.00;99.90
59923;DHT22;45778;51.142;3.732;2024-02-26T07:26:36;7.00;99.90
59923;DHT22;45778;51.142;3.732;2024-02-26T07:29:01;6.90;99.90
59923;DHT22;45778;51.142;3.732;2024-02-26T07:31:27;7.00;99.90
59923;DHT22;45778;51.142;3.732;2024-02-26T07:33:53;7.00;99.90
59923;DHT22;45778;51.142;3.732;2024-02-26T07:36:19;7.00;99.90
59923;DHT22;45778;51.142;3.732;2024-02-26T07:38:44;6.80;99.90
59923;DHT22;45778;51.142;3.732;2024-02-26T07:41:11;6.80;99.90
59923;DHT22;45778;51.142;3.732;2024-02-26T07:43:36;6.90;99.90
59923;DHT22;45778;51.142;3.732;2024-02-26T07:46:02;7.00;99.90
59923;DHT22;45778;51.142;3.732;2024-02-26T07:48:28;6.90;99.90
59923;DHT22;45778;51.142;3.732;2024-02-26T07:50:53;6.90;99.90
59923;DHT22;45778;51.142;3.732;2024-02-26T07:53:19;7.00;99.90
59923;DHT22;45778;51.142;3.732;2024-02-26T07:55:45;6.90;99.90
59923;DHT22;45778;51.142;3.732;2024-02-26T07:58:10;6.90;99.90
59923;DHT22;45778;51.142;3.732;2024-02-26T08:00:36;7.00;99.90
59923;DHT22;45778;51.142;3.732;2024-02-26T08:03:02;7.00;99.90
59923;DHT22;45778;51.142;3.732;2024-02-26T08:05:27;7.00;99.90
59923;DHT22;45778;51.142;3.732;2024-02-26T08:07:53;7.10;99.90
59923;DHT22;45778;51.142;3.732;2024-02-26T08:10:20;7.10;99.90
59923;DHT22;45778;51.142;3.732;2024-02-26T08:12:45;7.00;99.90
59923;DHT22;45778;51.142;3.732;2024-02-26T08:15:11;6.90;99.90
59923;DHT22;45778;51.142;3.732;2024-02-26T08:17:37;6.90;99.90
59923;DHT22;45778;51.142;3.732;2024-02-26T08:20:04;7.00;99.90
59923;DHT22;45778;51.142;3.732;2024-02-26T08:22:29;7.10;99.90
59923;DHT22;45778;51.142;3.732;2024-02-26T08:24:55;7.00;99.90
59923;DHT22;45778;51.142;3.732;2024-02-26T08:27:21;7.00;99.90
59923;DHT22;45778;51.142;3.732;2024-02-26T08:29:46;7.00;99.90
59923;DHT22;45778;51.142;3.732;2024-02-26T08:32:12;7.00;99.90
59923;DHT22;45778;51.142;3.732;2024-02-26T08:34:37;7.00;99.90
59923;DHT22;45778;51.142;3.732;2024-02-26T08:37:03;6.90;99.90
59923;DHT22;45778;51.142;3.732;2024-02-26T08:39:29;6.90;99.90
59923;DHT22;45778;51.142;3.732;2024-02-26T08:41:55;7.00;99.90
59923;DHT22;45778;51.142;3.732;2024-02-26T08:44:20;7.00;99.90
59923;DHT22;45778;51.142;3.732;2024-02-26T08:46:46;6.90;99.90
59923;DHT22;45778;51.142;3.732;2024-02-26T08:49:12;6.90;99.90
59923;DHT22;45778;51.142;3.732;2024-02-26T08:51:43;6.80;99.90
59923;DHT22;45778;51.142;3.732;2024-02-26T08:54:10;6.80;99.90
59923;DHT22;45778;51.142;3.732;2024-02-26T08:56:35;7.00;99.90
59923;DHT22;45778;51.142;3.732;2024-02-26T08:59:01;6.80;99.90
59923;DHT22;45778;51.142;3.732;2024-02-26T09:01:30;6.90;99.90
59923;DHT22;45778;51.142;3.732;2024-02-26T09:03:58;6.90;99.90
59923;DHT22;45778;51.142;3.732;2024-02-26T09:06:23;6.80;99.90
59923;DHT22;45778;51.142;3.732;2024-02-26T09:08:49;6.90;99.90
59923;DHT22;45778;51.142;3.732;2024-02-26T09:11:15;6.90;99.90
59923;DHT22;45778;51.142;3.732;2024-02-26T09:13:41;6.90;99.90
59923;DHT22;45778;51.142;3.732;2024-02-26T09:16:07;6.90;99.90
59923;DHT22;45778;51.142;3.732;2024-02-26T09:18:33;6.80;99.90
59923;DHT22;45778;51.142;3.732;2024-02-26T09:20:58;6.70;99.90
59923;DHT22;45778;51.142;3.732;2024-02-26T09:23:24;6.80;99.90
59923;DHT22;45778;51.142;3.732;2024-02-26T09:25:50;6.70;99.90
59923;DHT22;45778;51.142;3.732;2024-02-26T09:28:16;6.90;99.90
59923;DHT22;45778;51.142;3.732;2024-02-26T09:30:43;6.90;99.90
59923;DHT22;45778;51.142;3.732;2024-02-26T09:33:10;6.90;99.90
59923;DHT22;45778;51.142;3.732;2024-02-26T09:35:37;6.80;99.90
59923;DHT22;45778;51.142;3.732;2024-02-26T09:38:02;6.80;99.90
59923;DHT22;45778;51.142;3.732;2024-02-26T09:40:28;6.90;99.90
59923;DHT22;45778;51.142;3.732;2024-02-26T09:43:00;6.90;99.90
59923;DHT22;45778;51.142;3.732;2024-02-26T09:45:30;6.80;99.90
59923;DHT22;45778;51.142;3.732;2024-02-26T09:47:58;6.80;99.90
59923;DHT22;45778;51.142;3.732;2024-02-26T09:50:24;6.70;99.90
59923;DHT22;45778;51.142;3.732;2024-02-26T09:52:51;6.80;99.90
59923;DHT22;45778;51.142;3.732;2024-02-26T09:55:19;6.70;99.90
59923;DHT22;45778;51.142;3.732;2024-02-26T09:57:46;6.70;99.90
59923;DHT22;45778;51.142;3.732;2024-02-26T10:00:18;6.80;99.90
59923;DHT22;45778;51.142;3.732;2024-02-26T10:02:46;6.80;99.90
59923;DHT22;45778;51.142;3.732;2024-02-26T10:05:18;7.00;99.90
59923;DHT22;45778;51.142;3.732;2024-02-26T10:07:45;7.00;99.90
59923;DHT22;45778;51.142;3.732;2024-02-26T10:10:11;7.00;99.90
59923;DHT22;45778;51.142;3.732;2024-02-26T10:12:37;7.00;99.90
59923;DHT22;45778;51.142;3.732;2024-02-26T10:15:03;6.90;99.90
59923;DHT22;45778;51.142;3.732;2024-02-26T10:17:29;7.00;99.90
59923;DHT22;45778;51.142;3.732;2024-02-26T10:19:59;6.80;99.90
59923;DHT22;45778;51.142;3.732;2024-02-26T10:22:35;6.90;99.90
59923;DHT22;45778;51.142;3.732;2024-02-26T10:25:01;6.80;99.90
59923;DHT22;45778;51.142;3.732;2024-02-26T10:27:28;7.00;99.90
59923;DHT22;45778;51.142;3.732;2024-02-26T10:29:56;6.90;99.90
59923;DHT22;45778;51.142;3.732;2024-02-26T10:32:22;7.00;99.90
59923;DHT22;45778;51.142;3.732;2024-02-26T10:34:48;7.10;99.90
59923;DHT22;45778;51.142;3.732;2024-02-26T10:37:13;7.00;99.90
59923;DHT22;45778;51.142;3.732;2024-02-26T10:39:46;7.00;99.90
59923;DHT22;45778;51.142;3.732;2024-02-26T10:42:12;7.00;99.90
59923;DHT22;45778;51.142;3.732;2024-02-26T10:44:40;6.80;99.90
59923;DHT22;45778;51.142;3.732;2024-02-26T10:47:07;6.90;99.90
59923;DHT22;45778;51.142;3.732;2024-02-26T10:49:35;7.10;99.90
59923;DHT22;45778;51.142;3.732;2024-02-26T10:52:01;7.10;99.90
59923;DHT22;45778;51.142;3.732;2024-02-26T10:54:29;7.10;99.90
59923;DHT22;45778;51.142;3.732;2024-02-26T10:56:59;7.00;99.90
59923;DHT22;45778;51.142;3.732;2024-02-26T10:59:26;7.00;99.90
59923;DHT22;45778;51.142;3.732;2024-02-26T11:01:52;7.00;99.90
59923;DHT22;45778;51.142;3.732;2024-02-26T11:04:18;7.00;99.90
59923;DHT22;45778;51.142;3.732;2024-02-26T11:06:45;7.00;99.90
59923;DHT22;45778;51.142;3.732;2024-02-26T11:09:12;6.90;99.90
59923;DHT22;45778;51.142;3.732;2024-02-26T11:11:40;7.00;99.90
59923;DHT22;45778;51.142;3.732;2024-02-26T11:14:08;6.70;99.90
59923;DHT22;45778;51.142;3.732;2024-02-26T11:16:35;7.00;99.90
59923;DHT22;45778;51.142;3.732;2024-02-26T11:19:02;7.00;99.90
59923;DHT22;45778;51.142;3.732;2024-02-26T11:21:28;7.10;99.90
59923;DHT22;45778;51.142;3.732;2024-02-26T11:24:10;7.00;99.90
59923;DHT22;45778;51.142;3.732;2024-02-26T11:26:45;7.00;99.90
59923;DHT22;45778;51.142;3.732;2024-02-26T11:29:17;6.90;99.90
59923;DHT22;45778;51.142;3.732;2024-02-26T11:31:45;6.90;99.90
59923;DHT22;45778;51.142;3.732;2024-02-26T11:34:11;7.00;99.90
59923;DHT22;45778;51.142;3.732;2024-02-26T11:36:37;6.90;99.90
59923;DHT22;45778;51.142;3.732;2024-02-26T11:39:04;6.90;99.90
59923;DHT22;45778;51.142;3.732;2024-02-26T11:41:30;7.00;99.90
59923;DHT22;45778;51.142;3.732;2024-02-26T11:44:03;7.00;99.90
59923;DHT22;45778;51.142;3.732;2024-02-26T11:46:42;7.10;99.90
59923;DHT22;45778;51.142;3.732;2024-02-26T11:51:57;7.10;99.90
59923;DHT22;45778;51.142;3.732;2024-02-26T11:54:46;7.20;99.90
59923;DHT22;45778;51.142;3.732;2024-02-26T11:59:47;7.30;99.90
59923;DHT22;45778;51.142;3.732;2024-02-26T12:05:19;7.20;99.90
59923;DHT22;45778;51.142;3.732;2024-02-26T12:07:59;7.40;99.90
59923;DHT22;45778;51.142;3.732;2024-02-26T12:12:58;7.40;99.90
59923;DHT22;45778;51.142;3.732;2024-02-26T12:15:30;7.20;99.90
59923;DHT22;45778;51.142;3.732;2024-02-26T12:17:56;7.30;99.90
59923;DHT22;45778;51.142;3.732;2024-02-26T12:20:22;7.30;99.90
59923;DHT22;45778;51.142;3.732;2024-02-26T12:22:50;7.30;99.90
59923;DHT22;45778;51.142;3.732;2024-02-26T12:25:21;7.20;99.90
59923;DHT22;45778;51.142;3.732;2024-02-26T12:27:48;7.30;99.90
59923;DHT22;45778;51.142;3.732;2024-02-26T12:30:13;7.30;99.90
59923;DHT22;45778;51.142;3.732;2024-02-26T12:32:39;7.20;99.90
59923;DHT22;45778;51.142;3.732;2024-02-26T12:35:06;7.20;99.90
59923;DHT22;45778;51.142;3.732;2024-02-26T12:37:32;7.20;99.90
59923;DHT22;45778;51.142;3.732;2024-02-26T12:39:58;7.30;99.90
59923;DHT22;45778;51.142;3.732;2024-02-26T12:42:23;7.40;99.90
59923;DHT22;45778;51.142;3.732;2024-02-26T12:44:50;7.50;99.90
59923;DHT22;45778;51.142;3.732;2024-02-26T12:47:16;7.50;99.90
59923;DHT22;45778;51.142;3.732;2024-02-26T12:49:48;7.40;99.90
59923;DHT22;45778;51.142;3.732;2024-02-26T12:52:16;7.40;99.90
59923;DHT22;45778;51.142;3.732;2024-02-26T12:54:42;7.30;99.90
59923;DHT22;45778;51.142;3.732;2024-02-26T12:57:09;7.30;99.90
59923;DHT22;45778;51.142;3.732;2024-02-26T12:59:35;7.30;99.90
59923;DHT22;45778;51.142;3.732;2024-02-26T13:02:02;7.30;99.90
59923;DHT22;45778;51.142;3.732;2024-02-26T13:04:29;7.30;99.90
59923;DHT22;45778;51.142;3.732;2024-02-26T13:06:58;7.30;99.90
59923;DHT22;45778;51.142;3.732;2024-02-26T13:09:32;7.40;99.90
59923;DHT22;45778;51.142;3.732;2024-02-26T13:11:59;7.40;99.90
59923;DHT22;45778;51.142;3.732;2024-02-26T13:14:26;7.30;99.90
59923;DHT22;45778;51.142;3.732;2024-02-26T13:16:57;7.20;99.90
59923;DHT22;45778;51.142;3.732;2024-02-26T13:19:24;7.30;99.90
59923;DHT22;45778;51.142;3.732;2024-02-26T13:21:49;7.30;99.90
59923;DHT22;45778;51.142;3.732;2024-02-26T13:24:15;7.40;99.90
59923;DHT22;45778;51.142;3.732;2024-02-26T13:26:42;7.30;99.90
59923;DHT22;45778;51.142;3.732;2024-02-26T13:29:07;7.20;99.90
59923;DHT22;45778;51.142;3.732;2024-02-26T13:31:39;7.40;99.90
59923;DHT22;45778;51.142;3.732;2024-02-26T13:34:05;7.30;99.90
59923;DHT22;45778;51.142;3.732;2024-02-26T13:36:31;7.20;99.90
59923;DHT22;45778;51.142;3.732;2024-02-26T13:38:57;7.30;99.90
59923;DHT22;45778;51.142;3.732;2024-02-26T13:41:22;7.30;99.90
59923;DHT22;45778;51.142;3.732;2024-02-26T13:43:48;7.30;99.90
59923;DHT22;45778;51.142;3.732;2024-02-26T13:46:14;7.30;99.90
59923;DHT22;45778;51.142;3.732;2024-02-26T13:48:41;7.40;99.90
59923;DHT22;45778;51.142;3.732;2024-02-26T13:51:07;7.40;99.90
59923;DHT22;45778;51.142;3.732;2024-02-26T13:53:32;7.40;99.90
59923;DHT22;45778;51.142;3.732;2024-02-26T13:55:58;7.40;99.90
59923;DHT22;45778;51.142;3.732;2024-02-26T13:58:26;7.40;99.90
59923;DHT22;45778;51.142;3.732;2024-02-26T14:00:55;7.40;99.90
59923;DHT22;45778;51.142;3.732;2024-02-26T14:03:22;7.40;99.90
59923;DHT22;45778;51.142;3.732;2024-02-26T14:05:47;7.30;99.90
59923;DHT22;45778;51.142;3.732;2024-02-26T14:08:13;7.30;99.90
59923;DHT22;45778;51.142;3.732;2024-02-26T14:10:40;7.30;99.90
59923;DHT22;45778;51.142;3.732;2024-02-26T14:13:06;7.40;99.90
59923;DHT22;45778;51.142;3.732;2024-02-26T14:15:32;7.40;99.90
59923;DHT22;45778;51.142;3.732;2024-02-26T14:17:58;7.40;99.90
59923;DHT22;45778;51.142;3.732;2024-02-26T14:20:24;7.40;99.90
59923;DHT22;45778;51.142;3.732;2024-02-26T14:22:51;7.40;99.90
59923;DHT22;45778;51.142;3.732;2024-02-26T14:25:19;7.40;99.90
59923;DHT22;45778;51.142;3.732;2024-02-26T14:27:46;7.40;99.90
59923;DHT22;45778;51.142;3.732;2024-02-26T14:30:12;7.30;99.90
59923;DHT22;45778;51.142;3.732;2024-02-26T14:32:38;7.30;99.90
59923;DHT22;45778;51.142;3.732;2024-02-26T14:35:06;7.40;99.90
59923;DHT22;45778;51.142;3.732;2024-02-26T14:37:33;7.50;99.90
59923;DHT22;45778;51.142;3.732;2024-02-26T14:39:59;7.50;99.90
59923;DHT22;45778;51.142;3.732;2024-02-26T14:42:25;7.50;99.90
59923;DHT22;45778;51.142;3.732;2024-02-26T14:44:50;7.50;99.90
59923;DHT22;45778;51.142;3.732;2024-02-26T14:47:16;7.50;99.90
59923;DHT22;45778;51.142;3.732;2024-02-26T14:49:42;7.40;99.90
59923;DHT22;45778;51.142;3.732;2024-02-26T14:52:08;7.50;99.90
59923;DHT22;45778;51.142;3.732;2024-02-26T14:54:34;7.60;99.90
59923;DHT22;45778;51.142;3.732;2024-02-26T14:57:04;7.50;99.90
59923;DHT22;45778;51.142;3.732;2024-02-26T14:59:31;7.40;99.90
59923;DHT22;45778;51.142;3.732;2024-02-26T15:01:57;7.40;99.90
59923;DHT22;45778;51.142;3.732;2024-02-26T15:04:25;7.30;99.90
59923;DHT22;45778;51.142;3.732;2024-02-26T15:06:51;7.30;99.90
59923;DHT22;45778;51.142;3.732;2024-02-26T15:09:20;7.30;99.90
59923;DHT22;45778;51.142;3.732;2024-02-26T15:11:46;7.40;99.90
59923;DHT22;45778;51.142;3.732;2024-02-26T15:14:12;7.40;99.90
59923;DHT22;45778;51.142;3.732;2024-02-26T15:16:37;7.50;99.90
59923;DHT22;45778;51.142;3.732;2024-02-26T15:19:03;7.50;99.90
59923;DHT22;45778;51.142;3.732;2024-02-26T15:21:29;7.50;99.90
59923;DHT22;45778;51.142;3.732;2024-02-26T15:23:55;7.40;99.90
59923;DHT22;45778;51.142;3.732;2024-02-26T15:26:21;7.40;99.90
59923;DHT22;45778;51.142;3.732;2024-02-26T15:28:47;7.40;99.90
59923;DHT22;45778;51.142;3.732;2024-02-26T15:31:15;7.30;99.90
59923;DHT22;45778;51.142;3.732;2024-02-26T15:33:41;7.40;99.90
59923;DHT22;45778;51.142;3.732;2024-02-26T15:36:09;7.40;99.90
59923;DHT22;45778;51.142;3.732;2024-02-26T15:38:38;7.50;99.90
59923;DHT22;45778;51.142;3.732;2024-02-26T15:41:14;7.60;99.90
59923;DHT22;45778;51.142;3.732;2024-02-26T15:43:40;7.50;99.90
59923;DHT22;45778;51.142;3.732;2024-02-26T15:46:06;7.40;99.90
59923;DHT22;45778;51.142;3.732;2024-02-26T15:48:32;7.30;99.90
59923;DHT22;45778;51.142;3.732;2024-02-26T15:50:58;7.30;99.90